NC89 weather

Pungo District Hospital Heliport
Belhaven, North Carolina, United States

Public forecast

Using degrees Fahrenheit for public forecast. Weather courtesy of forecast.io.

Closest aviation weather report (METAR) to Pungo District Hospital Heliport

Closest report is Warren Field, 21.2 nm (39.3 km) W. Retrieved 2019/10/21 01:35 UTC (0 seconds ago):

KOCW 210135Z AUTO 31008KT 7SM OVC008 15/14 A2985 RMK AO2 T01530143

Closest aviation forecast (TAF) to Pungo District Hospital Heliport

Closest forecast is Coastal Carolina Regional Airport, 35.1 nm (65.0 km) SW. Retrieved 2019-10-21 00:30 UTC (1 hour ago):

TAF KEWN 202327Z 2100/2124 30008G16KT P6SM SCT008 OVC012 FM210800 32006KT P6SM OVC008 FM211600 34004KT P6SM BKN015 FM212100 VRB03KT P6SM BKN045